createdAt,value
2023-05-21T00:00:13.199Z,1.13
2023-05-21T00:02:42.829Z,1.33
2023-05-21T00:05:14.780Z,1.47
2023-05-21T00:07:44.412Z,1.40
2023-05-21T00:10:15.024Z,1.17
2023-05-21T00:12:44.160Z,1.30
2023-05-21T00:15:13.777Z,0.90
2023-05-21T00:17:44.508Z,1.27
2023-05-21T00:20:14.156Z,1.70
2023-05-21T00:22:43.788Z,1.03
2023-05-21T00:25:14.673Z,1.27
2023-05-21T00:27:43.775Z,1.40
2023-05-21T00:30:13.200Z,1.10
2023-05-21T00:32:42.369Z,1.33
2023-05-21T00:35:11.670Z,1.53
2023-05-21T00:37:40.933Z,1.40
2023-05-21T00:40:11.750Z,1.10
2023-05-21T00:42:42.269Z,1.23
2023-05-21T00:45:11.622Z,1.27
2023-05-21T00:47:41.698Z,1.03
2023-05-21T00:50:11.623Z,1.23
2023-05-21T00:52:42.558Z,1.20
2023-05-21T00:55:12.179Z,1.30
2023-05-21T00:57:43.510Z,1.30
2023-05-21T01:00:14.632Z,1.37
2023-05-21T01:02:44.194Z,1.77
2023-05-21T01:05:15.361Z,1.30
2023-05-21T01:07:44.550Z,1.20
2023-05-21T01:10:14.434Z,1.80
2023-05-21T01:12:46.851Z,1.50
2023-05-21T01:15:16.397Z,1.73
2023-05-21T01:17:46.490Z,1.50
2023-05-21T01:20:20.178Z,1.80
2023-05-21T01:22:54.204Z,1.40
2023-05-21T01:25:24.115Z,1.23
2023-05-21T01:27:53.416Z,1.40
2023-05-21T01:30:24.402Z,1.50
2023-05-21T01:33:00.055Z,1.50
2023-05-21T01:35:34.676Z,1.20
2023-05-21T01:38:13.338Z,1.40
2023-05-21T01:40:47.139Z,1.43
2023-05-21T01:43:17.824Z,1.40
2023-05-21T01:45:48.642Z,1.53
2023-05-21T01:48:19.801Z,1.60
2023-05-21T01:50:49.955Z,1.73
2023-05-21T01:53:20.487Z,1.67
2023-05-21T01:55:49.704Z,2.00
2023-05-21T01:58:19.233Z,1.30
2023-05-21T02:00:51.052Z,1.40
2023-05-21T02:03:21.720Z,1.50
2023-05-21T02:05:52.007Z,1.70
2023-05-21T02:08:23.373Z,1.97
2023-05-21T02:10:52.643Z,1.70
2023-05-21T02:13:25.132Z,2.00
2023-05-21T02:15:56.239Z,1.80
2023-05-21T02:18:26.315Z,1.30
2023-05-21T02:20:55.717Z,2.00
2023-05-21T02:23:26.232Z,1.80
2023-05-21T02:25:55.397Z,1.60
2023-05-21T02:28:24.497Z,1.80
2023-05-21T02:30:53.654Z,2.23
2023-05-21T02:33:22.881Z,1.70
2023-05-21T02:35:51.997Z,1.70
2023-05-21T02:38:22.963Z,2.10
2023-05-21T02:40:53.873Z,2.00
2023-05-21T02:43:23.095Z,1.60
2023-05-21T02:45:52.501Z,1.73
2023-05-21T02:48:21.687Z,1.87
2023-05-21T02:50:51.391Z,2.30
2023-05-21T02:53:20.601Z,2.17
2023-05-21T02:55:49.938Z,2.03
2023-05-21T02:58:23.402Z,2.47
2023-05-21T03:00:53.796Z,2.13
2023-05-21T03:03:23.132Z,2.30
2023-05-21T03:05:52.998Z,2.27
2023-05-21T03:08:22.440Z,2.13
2023-05-21T03:10:51.565Z,2.30
2023-05-21T03:13:22.199Z,2.07
2023-05-21T03:15:51.354Z,2.37
2023-05-21T03:18:20.470Z,2.10
2023-05-21T03:20:49.597Z,2.30
2023-05-21T03:23:18.884Z,2.73
2023-05-21T03:25:49.075Z,2.40
2023-05-21T03:28:18.648Z,2.90
2023-05-21T03:30:53.561Z,2.33
2023-05-21T03:33:31.863Z,2.60
2023-05-21T03:36:02.403Z,2.43
2023-05-21T03:38:37.023Z,2.70
2023-05-21T03:41:07.232Z,2.50
2023-05-21T03:43:36.463Z,2.37
2023-05-21T03:46:07.459Z,2.63
2023-05-21T03:48:42.552Z,2.27
2023-05-21T03:51:15.907Z,2.27
2023-05-21T03:53:45.053Z,2.80
2023-05-21T03:56:14.351Z,2.57
2023-05-21T03:58:44.397Z,2.50
2023-05-21T04:01:14.923Z,2.47
2023-05-21T04:03:44.432Z,2.87
2023-05-21T04:06:13.882Z,2.90
2023-05-21T04:08:43.308Z,3.07
2023-05-21T04:11:12.402Z,2.73
2023-05-21T04:13:41.526Z,2.63
2023-05-21T04:16:10.819Z,3.00
2023-05-21T04:18:42.912Z,2.23
2023-05-21T04:21:13.764Z,2.97
2023-05-21T04:23:43.084Z,2.67
2023-05-21T04:26:21.398Z,3.27
2023-05-21T04:28:50.499Z,3.00
2023-05-21T04:31:19.636Z,3.17
2023-05-21T04:33:50.679Z,3.40
2023-05-21T04:36:20.152Z,2.70
2023-05-21T04:38:49.774Z,2.93
2023-05-21T04:41:21.256Z,3.57
2023-05-21T04:43:54.887Z,3.20
2023-05-21T04:46:26.760Z,2.57
2023-05-21T04:48:58.148Z,3.07
2023-05-21T04:51:27.332Z,3.10
2023-05-21T04:53:58.022Z,3.00
2023-05-21T04:56:27.344Z,2.40
2023-05-21T04:58:58.782Z,3.10
2023-05-21T05:01:29.357Z,2.60
2023-05-21T05:04:00.311Z,2.93
2023-05-21T05:06:30.297Z,2.77
2023-05-21T05:08:59.364Z,2.83
2023-05-21T05:11:28.540Z,2.70
2023-05-21T05:13:58.338Z,2.27
2023-05-21T05:16:27.965Z,2.73
2023-05-21T05:19:00.262Z,2.67
2023-05-21T05:21:29.653Z,2.53
2023-05-21T05:23:58.837Z,2.70
2023-05-21T05:26:30.750Z,2.27
2023-05-21T05:28:59.844Z,2.40
2023-05-21T05:31:28.948Z,2.63
2023-05-21T05:33:59.625Z,2.67
2023-05-21T05:36:28.788Z,2.83
2023-05-21T05:38:57.851Z,2.80
2023-05-21T05:41:27.188Z,2.27
2023-05-21T05:43:57.499Z,2.60
2023-05-21T05:46:30.133Z,3.40
2023-05-21T05:49:01.109Z,2.30
2023-05-21T05:51:30.981Z,2.87
2023-05-21T05:54:00.210Z,2.60
2023-05-21T05:56:29.311Z,2.42
2023-05-21T05:58:59.725Z,2.70
2023-05-21T06:01:29.430Z,2.47
2023-05-21T06:03:59.900Z,2.70
2023-05-21T06:06:29.008Z,2.28
2023-05-21T06:08:58.046Z,3.10
2023-05-21T06:11:27.811Z,3.10
2023-05-21T06:13:56.996Z,2.63
2023-05-21T06:16:26.278Z,2.70
2023-05-21T06:18:55.487Z,2.78
2023-05-21T06:21:25.968Z,2.53
2023-05-21T06:23:55.824Z,3.20
2023-05-21T06:26:25.149Z,3.15
2023-05-21T06:28:54.773Z,2.38
2023-05-21T06:31:24.594Z,2.53
2023-05-21T06:33:53.937Z,2.67
2023-05-21T06:36:26.122Z,2.88
2023-05-21T06:38:55.185Z,2.55
2023-05-21T06:41:24.583Z,2.50
2023-05-21T06:43:57.758Z,2.67
2023-05-21T06:46:41.561Z,3.00
2023-05-21T06:49:14.066Z,2.78
2023-05-21T06:51:45.047Z,2.83
2023-05-21T06:54:15.591Z,2.92
2023-05-21T06:56:45.012Z,3.08
2023-05-21T06:59:14.145Z,3.42
2023-05-21T07:01:43.927Z,3.47
2023-05-21T07:04:13.365Z,3.33
2023-05-21T07:06:45.929Z,2.90
2023-05-21T07:09:15.568Z,3.47
2023-05-21T07:11:44.734Z,3.20
2023-05-21T07:14:15.477Z,3.35
2023-05-21T07:16:44.661Z,3.28
2023-05-21T07:19:13.810Z,3.67
2023-05-21T07:21:43.033Z,3.90
2023-05-21T07:24:13.552Z,3.30
2023-05-21T07:26:43.116Z,3.85
2023-05-21T07:29:13.506Z,3.90
2023-05-21T07:31:42.829Z,3.40
2023-05-21T07:34:12.935Z,3.80
2023-05-21T07:36:43.731Z,3.60
2023-05-21T07:39:15.287Z,4.20
2023-05-21T07:41:45.322Z,4.60
2023-05-21T07:44:14.560Z,3.63
2023-05-21T07:46:45.666Z,3.85
2023-05-21T07:49:16.882Z,4.45
2023-05-21T07:51:47.635Z,3.83
2023-05-21T07:54:19.699Z,4.05
2023-05-21T07:56:48.896Z,3.85
2023-05-21T07:59:37.925Z,4.18
2023-05-21T08:02:08.267Z,4.90
2023-05-21T08:04:40.804Z,4.30
2023-05-21T08:07:10.714Z,4.25
2023-05-21T08:09:41.229Z,3.85
2023-05-21T08:12:15.600Z,4.03
2023-05-21T08:14:44.704Z,3.67
2023-05-21T08:17:15.444Z,4.20
2023-05-21T08:19:44.712Z,3.90
2023-05-21T08:22:13.847Z,4.10
2023-05-21T08:24:48.280Z,4.10
2023-05-21T08:27:17.530Z,3.67
2023-05-21T08:29:47.019Z,4.45
2023-05-21T08:32:16.295Z,4.00
2023-05-21T08:34:45.744Z,3.75
2023-05-21T08:37:28.775Z,4.30
2023-05-21T08:40:07.496Z,4.68
2023-05-21T08:42:45.666Z,4.90
2023-05-21T08:45:23.472Z,4.47
2023-05-21T08:47:57.909Z,4.47
2023-05-21T08:50:30.505Z,4.18
2023-05-21T08:53:07.501Z,4.20
2023-05-21T08:55:47.049Z,4.35
2023-05-21T08:58:16.773Z,4.38
2023-05-21T09:00:46.327Z,3.97
2023-05-21T09:03:16.983Z,4.45
2023-05-21T09:05:47.234Z,4.32
2023-05-21T09:08:19.871Z,4.45
2023-05-21T09:11:03.701Z,4.53
2023-05-21T09:13:42.777Z,4.82
2023-05-21T09:16:17.806Z,4.53
2023-05-21T09:18:47.614Z,4.82
2023-05-21T09:21:27.612Z,5.07
2023-05-21T09:24:02.037Z,4.30
2023-05-21T09:26:34.110Z,4.43
2023-05-21T09:29:06.689Z,4.50
2023-05-21T09:31:36.733Z,4.70
2023-05-21T09:34:06.070Z,4.80
2023-05-21T09:36:39.289Z,5.05
2023-05-21T09:39:08.735Z,4.30
2023-05-21T09:41:43.229Z,4.85
2023-05-21T09:44:13.490Z,4.68
2023-05-21T09:46:42.907Z,4.90
2023-05-21T09:49:26.223Z,5.40
2023-05-21T09:51:59.417Z,5.28
2023-05-21T09:54:33.568Z,4.90
2023-05-21T09:57:04.511Z,5.95
2023-05-21T09:59:40.383Z,5.75
2023-05-21T10:02:18.852Z,5.53
2023-05-21T10:04:50.919Z,4.70
2023-05-21T10:07:26.149Z,5.70
2023-05-21T10:09:57.259Z,4.55
2023-05-21T10:12:31.230Z,4.78
2023-05-21T10:15:04.163Z,5.05
2023-05-21T10:17:33.440Z,4.57
2023-05-21T10:20:04.931Z,4.75
2023-05-21T10:22:35.383Z,4.40
2023-05-21T10:25:05.518Z,4.57
2023-05-21T10:27:36.882Z,4.20
2023-05-21T10:30:07.534Z,4.50
2023-05-21T10:32:37.229Z,3.95
2023-05-21T10:35:08.338Z,4.45
2023-05-21T10:37:37.690Z,3.78
2023-05-21T10:40:08.138Z,4.03
2023-05-21T10:43:03.465Z,4.22
2023-05-21T10:45:46.410Z,4.07
2023-05-21T10:48:36.638Z,4.40
2023-05-21T10:51:21.504Z,4.07
2023-05-21T10:54:19.131Z,4.20
2023-05-21T10:57:02.311Z,4.88
2023-05-21T10:59:41.847Z,4.55
2023-05-21T11:02:13.801Z,4.53
2023-05-21T11:04:45.600Z,4.07
2023-05-21T11:07:14.889Z,4.45
2023-05-21T11:09:43.962Z,5.28
2023-05-21T11:12:14.449Z,4.43
2023-05-21T11:14:57.869Z,4.45
2023-05-21T11:17:40.706Z,5.20
2023-05-21T11:20:11.574Z,4.22
2023-05-21T11:22:40.674Z,4.43
2023-05-21T11:25:12.566Z,4.00
2023-05-21T11:27:42.741Z,4.00
2023-05-21T11:30:18.080Z,4.28
2023-05-21T11:33:20.392Z,4.55
2023-05-21T11:36:00.313Z,4.75
2023-05-21T11:38:31.918Z,4.68
2023-05-21T11:41:04.548Z,3.90
2023-05-21T11:43:33.782Z,4.47
2023-05-21T11:46:04.405Z,4.30
2023-05-21T11:48:33.990Z,4.90
2023-05-21T11:51:03.810Z,4.43
2023-05-21T11:53:32.941Z,4.43
2023-05-21T11:56:04.072Z,4.68
2023-05-21T11:58:33.462Z,4.68
2023-05-21T12:01:03.993Z,4.38
2023-05-21T12:03:36.530Z,4.40
2023-05-21T12:06:08.238Z,5.50
2023-05-21T12:08:38.356Z,5.00
2023-05-21T12:11:07.556Z,5.07
2023-05-21T12:13:36.935Z,4.72
2023-05-21T12:16:09.016Z,4.80
2023-05-21T12:18:39.551Z,4.72
2023-05-21T12:21:11.077Z,4.47
2023-05-21T12:23:41.719Z,5.28
2023-05-21T12:26:10.998Z,4.38
2023-05-21T12:28:40.550Z,4.93
2023-05-21T12:31:16.493Z,5.38
2023-05-21T12:33:47.267Z,5.05
2023-05-21T12:36:24.002Z,4.95
2023-05-21T12:38:53.715Z,4.25
2023-05-21T12:41:23.814Z,4.70
2023-05-21T12:43:53.406Z,4.95
2023-05-21T12:46:23.955Z,5.00
2023-05-21T12:48:55.356Z,4.32
2023-05-21T12:51:24.444Z,5.13
2023-05-21T12:53:53.941Z,4.72
2023-05-21T12:56:23.106Z,4.45
2023-05-21T12:58:52.326Z,4.50
2023-05-21T13:01:25.913Z,4.93
2023-05-21T13:03:55.497Z,4.60
2023-05-21T13:06:26.391Z,4.90
2023-05-21T13:08:55.776Z,4.80
2023-05-21T13:11:24.825Z,4.50
2023-05-21T13:13:53.908Z,4.78
2023-05-21T13:16:23.678Z,4.75
2023-05-21T13:18:54.300Z,5.07
2023-05-21T13:21:23.560Z,4.47
2023-05-21T13:23:52.634Z,4.45
2023-05-21T13:26:21.723Z,4.25
2023-05-21T13:28:50.789Z,4.72
2023-05-21T13:31:19.861Z,4.32
2023-05-21T13:33:49.005Z,4.40
2023-05-21T13:36:19.644Z,4.57
2023-05-21T13:38:49.280Z,4.40
2023-05-21T13:41:19.286Z,3.95
2023-05-21T13:43:49.732Z,4.20
2023-05-21T13:46:20.103Z,4.20
2023-05-21T13:48:50.386Z,4.25
2023-05-21T13:51:37.521Z,4.30
2023-05-21T13:54:09.277Z,4.22
2023-05-21T13:56:39.449Z,3.95
2023-05-21T13:59:12.528Z,4.28
2023-05-21T14:01:46.075Z,4.22
2023-05-21T14:04:16.570Z,3.67
2023-05-21T14:06:48.918Z,3.58
2023-05-21T14:09:19.975Z,3.83
2023-05-21T14:11:49.982Z,3.72
2023-05-21T14:14:20.302Z,3.90
2023-05-21T14:16:51.632Z,3.63
2023-05-21T14:19:22.206Z,4.32
2023-05-21T14:21:55.481Z,4.07
2023-05-21T14:24:26.074Z,3.53
2023-05-21T14:26:56.422Z,3.75
2023-05-21T14:29:26.839Z,3.78
2023-05-21T14:31:56.695Z,3.75
2023-05-21T14:34:26.896Z,3.60
2023-05-21T14:36:57.443Z,3.65
2023-05-21T14:39:26.643Z,4.00
2023-05-21T14:41:55.776Z,4.30
2023-05-21T14:44:24.860Z,3.92
2023-05-21T14:46:54.065Z,4.00
2023-05-21T14:49:23.215Z,4.53
2023-05-21T14:51:52.487Z,4.10
2023-05-21T14:54:22.936Z,3.78
2023-05-21T14:56:52.081Z,3.92
2023-05-21T14:59:21.402Z,4.07
2023-05-21T15:01:50.512Z,4.20
2023-05-21T15:04:19.687Z,4.28
2023-05-21T15:06:49.083Z,4.00
2023-05-21T15:09:18.134Z,4.25
2023-05-21T15:11:52.369Z,3.85
2023-05-21T15:14:21.704Z,4.22
2023-05-21T15:16:51.027Z,4.20
2023-05-21T15:19:20.330Z,4.22
2023-05-21T15:21:51.643Z,3.80
2023-05-21T15:24:20.798Z,4.65
2023-05-21T15:26:51.242Z,4.05
2023-05-21T15:29:20.655Z,4.15
2023-05-21T15:31:49.802Z,4.13
2023-05-21T15:34:18.998Z,4.10
2023-05-21T15:36:48.174Z,3.97
2023-05-21T15:39:17.277Z,4.28
2023-05-21T15:41:46.360Z,4.40
2023-05-21T15:44:17.053Z,3.67
2023-05-21T15:46:46.268Z,4.43
2023-05-21T15:49:15.383Z,3.90
2023-05-21T15:51:46.387Z,3.90
2023-05-21T15:54:15.463Z,4.07
2023-05-21T15:56:46.266Z,4.15
2023-05-21T15:59:16.983Z,3.92
2023-05-21T16:01:46.138Z,3.80
2023-05-21T16:04:16.971Z,4.05
2023-05-21T16:06:46.129Z,3.97
2023-05-21T16:09:15.491Z,4.43
2023-05-21T16:11:44.771Z,3.92
2023-05-21T16:14:13.945Z,3.83
2023-05-21T16:16:44.577Z,3.90
2023-05-21T16:19:13.753Z,4.20
2023-05-21T16:21:43.879Z,5.03
2023-05-21T16:24:12.926Z,4.03
2023-05-21T16:26:42.107Z,4.50
2023-05-21T16:29:11.173Z,4.40
2023-05-21T16:31:40.283Z,4.78
2023-05-21T16:34:10.822Z,4.50
2023-05-21T16:36:39.877Z,4.28
2023-05-21T16:39:09.135Z,4.20
2023-05-21T16:41:38.238Z,4.15
2023-05-21T16:44:07.429Z,4.55
2023-05-21T16:46:36.547Z,4.65
2023-05-21T16:49:05.710Z,4.20
2023-05-21T16:51:36.221Z,4.40
2023-05-21T16:54:06.294Z,4.50
2023-05-21T16:56:35.394Z,4.20
2023-05-21T16:59:04.543Z,4.38
2023-05-21T17:01:34.033Z,4.18
2023-05-21T17:04:03.302Z,4.13
2023-05-21T17:06:33.894Z,4.63
2023-05-21T17:09:04.610Z,4.47
2023-05-21T17:11:34.855Z,4.38
2023-05-21T17:14:03.971Z,4.30
2023-05-21T17:16:33.247Z,4.07
2023-05-21T17:19:02.469Z,4.57
2023-05-21T17:21:32.377Z,4.72
2023-05-21T17:24:02.913Z,4.97
2023-05-21T17:26:32.312Z,4.53
2023-05-21T17:29:01.496Z,4.30
2023-05-21T17:31:31.947Z,4.55
2023-05-21T17:34:01.359Z,4.47
2023-05-21T17:36:30.937Z,4.38
2023-05-21T17:39:00.143Z,4.35
2023-05-21T17:41:30.706Z,4.38
2023-05-21T17:43:59.769Z,4.95
2023-05-21T17:46:28.897Z,4.70
2023-05-21T17:48:58.449Z,4.78
2023-05-21T17:51:27.533Z,4.93
2023-05-21T17:53:57.036Z,4.63
2023-05-21T17:56:26.563Z,4.68
2023-05-21T17:58:57.056Z,4.68
2023-05-21T18:01:26.226Z,5.10
2023-05-21T18:03:55.690Z,4.72
2023-05-21T18:06:24.820Z,4.40
2023-05-21T18:08:54.081Z,6.47
2023-05-21T18:11:24.265Z,5.40
2023-05-21T18:13:54.008Z,5.32
2023-05-21T18:16:24.508Z,5.20
2023-05-21T18:18:53.665Z,4.78
2023-05-21T18:21:23.477Z,5.55
2023-05-21T18:23:52.894Z,5.60
2023-05-21T18:26:22.189Z,5.70
2023-05-21T18:28:51.716Z,5.07
2023-05-21T18:31:20.980Z,5.78
2023-05-21T18:33:51.494Z,5.20
2023-05-21T18:36:20.590Z,5.32
2023-05-21T18:38:53.349Z,5.65
2023-05-21T18:41:23.375Z,5.35
2023-05-21T18:43:52.696Z,5.53
2023-05-21T18:46:21.841Z,5.50
2023-05-21T18:48:52.436Z,5.75
2023-05-21T18:51:21.964Z,5.80
2023-05-21T18:53:51.052Z,6.15
2023-05-21T18:56:20.218Z,5.60
2023-05-21T18:58:49.320Z,5.90
2023-05-21T19:01:19.078Z,6.20
2023-05-21T19:03:48.305Z,6.85
2023-05-21T19:06:23.799Z,7.10
2023-05-21T19:08:53.825Z,6.35
2023-05-21T19:11:27.422Z,5.97
2023-05-21T19:13:56.507Z,6.45
2023-05-21T19:16:25.722Z,6.22
2023-05-21T19:18:54.874Z,6.07
2023-05-21T19:21:25.790Z,5.72
2023-05-21T19:23:54.922Z,7.07
2023-05-21T19:26:24.518Z,6.38
2023-05-21T19:28:54.534Z,5.80
2023-05-21T19:31:25.414Z,6.38
2023-05-21T19:33:54.759Z,6.60
2023-05-21T19:36:26.365Z,6.65
2023-05-21T19:38:58.754Z,6.65
2023-05-21T19:41:27.981Z,6.85
2023-05-21T19:43:57.471Z,7.28
2023-05-21T19:46:26.885Z,6.22
2023-05-21T19:48:56.047Z,6.28
2023-05-21T19:51:26.654Z,6.60
2023-05-21T19:53:56.296Z,7.05
2023-05-21T19:56:25.574Z,6.57
2023-05-21T19:58:54.790Z,6.68
2023-05-21T20:01:25.281Z,7.13
2023-05-21T20:03:54.442Z,7.10
2023-05-21T20:06:24.955Z,7.40
2023-05-21T20:08:54.215Z,6.72
2023-05-21T20:11:23.452Z,6.78
2023-05-21T20:13:53.162Z,7.00
2023-05-21T20:16:23.147Z,6.72
2023-05-21T20:18:56.711Z,7.15
2023-05-21T20:21:27.414Z,7.28
2023-05-21T20:23:56.519Z,6.70
2023-05-21T20:26:26.127Z,7.05
2023-05-21T20:28:55.259Z,7.10
2023-05-21T20:31:25.287Z,7.00
2023-05-21T20:33:54.466Z,6.47
2023-05-21T20:36:23.813Z,6.57
2023-05-21T20:38:54.290Z,6.70
2023-05-21T20:41:25.146Z,7.20
2023-05-21T20:43:55.274Z,6.45
2023-05-21T20:46:25.594Z,7.13
2023-05-21T20:48:54.692Z,7.38
2023-05-21T20:51:23.778Z,6.80
2023-05-21T20:53:54.255Z,7.10
2023-05-21T20:56:37.487Z,6.38
2023-05-21T20:59:11.858Z,6.63
2023-05-21T21:01:41.581Z,7.45
2023-05-21T21:04:11.304Z,6.93
2023-05-21T21:06:40.807Z,7.28
2023-05-21T21:09:11.281Z,7.15
2023-05-21T21:11:40.376Z,7.20
2023-05-21T21:14:09.434Z,7.07
2023-05-21T21:16:38.599Z,6.60
2023-05-21T21:19:07.943Z,7.15
2023-05-21T21:21:37.086Z,7.43
2023-05-21T21:24:07.151Z,6.95
2023-05-21T21:26:37.619Z,7.03
2023-05-21T21:29:06.763Z,7.45
2023-05-21T21:31:35.967Z,7.78
2023-05-21T21:34:05.205Z,7.40
2023-05-21T21:36:34.993Z,7.00
2023-05-21T21:39:04.156Z,7.03
2023-05-21T21:41:33.288Z,7.07
2023-05-21T21:44:03.690Z,6.95
2023-05-21T21:46:33.318Z,6.95
2023-05-21T21:49:02.448Z,7.63
2023-05-21T21:51:31.619Z,6.97
2023-05-21T21:54:00.688Z,6.82
2023-05-21T21:56:30.636Z,6.82
2023-05-21T21:58:59.732Z,7.13
2023-05-21T22:01:30.402Z,7.32
2023-05-21T22:03:59.476Z,6.82
2023-05-21T22:06:28.669Z,7.38
2023-05-21T22:08:57.808Z,6.90
2023-05-21T22:11:28.356Z,7.82
2023-05-21T22:13:57.493Z,7.28
2023-05-21T22:16:27.429Z,7.15
2023-05-21T22:18:58.967Z,7.20
2023-05-21T22:21:29.379Z,7.65
2023-05-21T22:23:58.544Z,7.78
2023-05-21T22:26:27.660Z,6.80
2023-05-21T22:28:59.047Z,7.13
2023-05-21T22:31:28.934Z,7.40
2023-05-21T22:33:59.402Z,6.97
2023-05-21T22:36:28.553Z,7.88
2023-05-21T22:38:57.611Z,7.78
2023-05-21T22:41:26.787Z,6.80
2023-05-21T22:43:55.890Z,7.30
2023-05-21T22:46:25.008Z,7.55
2023-05-21T22:48:54.164Z,7.10
2023-05-21T22:51:24.636Z,8.05
2023-05-21T22:53:53.682Z,7.47
2023-05-21T22:56:22.863Z,6.85
2023-05-21T22:58:51.888Z,7.88
2023-05-21T23:01:21.104Z,7.30
2023-05-21T23:03:50.325Z,7.35
2023-05-21T23:06:19.461Z,7.68
2023-05-21T23:08:49.871Z,7.28
2023-05-21T23:11:19.103Z,7.80
2023-05-21T23:13:48.241Z,7.53
2023-05-21T23:16:17.338Z,7.22
2023-05-21T23:18:47.661Z,7.35
2023-05-21T23:21:17.010Z,8.15
2023-05-21T23:23:46.160Z,7.57
2023-05-21T23:26:17.872Z,7.40
2023-05-21T23:28:46.945Z,7.47
2023-05-21T23:31:16.510Z,7.88
2023-05-21T23:33:45.561Z,7.63
2023-05-21T23:36:14.693Z,7.72
2023-05-21T23:38:43.797Z,7.45
2023-05-21T23:41:13.305Z,7.05
2023-05-21T23:43:43.736Z,7.82
2023-05-21T23:46:12.904Z,7.93
2023-05-21T23:48:42.042Z,7.15
2023-05-21T23:51:11.205Z,7.63
2023-05-21T23:53:40.312Z,7.65
2023-05-21T23:56:09.470Z,7.45
2023-05-21T23:58:38.574Z,7.43
